sensor_id;sensor_type;location;lat;lon;timestamp;pressure;altitude;pressure_sealevel;temperature;humidity
16255;BME280;8235;52.198;9.904;2023-05-23T00:01:41;100551.47;;;17.26;100.00
16255;BME280;8235;52.198;9.904;2023-05-23T00:04:09;100558.13;;;17.22;100.00
16255;BME280;8235;52.198;9.904;2023-05-23T00:06:42;100564.94;;;17.16;100.00
16255;BME280;8235;52.198;9.904;2023-05-23T00:09:13;100562.69;;;17.12;100.00
16255;BME280;8235;52.198;9.904;2023-05-23T00:11:43;100565.78;;;17.07;100.00
16255;BME280;8235;52.198;9.904;2023-05-23T00:14:10;100563.38;;;17.04;100.00
16255;BME280;8235;52.198;9.904;2023-05-23T00:16:38;100566.38;;;17.01;100.00
16255;BME280;8235;52.198;9.904;2023-05-23T00:19:05;100571.03;;;16.99;100.00
16255;BME280;8235;52.198;9.904;2023-05-23T00:21:32;100569.59;;;16.95;100.00
16255;BME280;8235;52.198;9.904;2023-05-23T00:24:00;100564.50;;;16.92;100.00
16255;BME280;8235;52.198;9.904;2023-05-23T00:26:28;100564.78;;;16.89;100.00
16255;BME280;8235;52.198;9.904;2023-05-23T00:28:56;100571.28;;;16.86;100.00
16255;BME280;8235;52.198;9.904;2023-05-23T00:31:23;100569.75;;;16.84;100.00
16255;BME280;8235;52.198;9.904;2023-05-23T00:33:49;100569.03;;;16.82;100.00
16255;BME280;8235;52.198;9.904;2023-05-23T00:36:15;100571.00;;;16.80;100.00
16255;BME280;8235;52.198;9.904;2023-05-23T00:38:42;100574.53;;;16.80;100.00
16255;BME280;8235;52.198;9.904;2023-05-23T00:41:11;100571.00;;;16.80;100.00
16255;BME280;8235;52.198;9.904;2023-05-23T00:43:37;100572.69;;;16.81;100.00
16255;BME280;8235;52.198;9.904;2023-05-23T00:46:04;100570.88;;;16.81;100.00
16255;BME280;8235;52.198;9.904;2023-05-23T00:48:31;100583.31;;;16.82;100.00
16255;BME280;8235;52.198;9.904;2023-05-23T00:50:57;100571.72;;;16.82;100.00
16255;BME280;8235;52.198;9.904;2023-05-23T00:53:24;100570.00;;;16.81;100.00
16255;BME280;8235;52.198;9.904;2023-05-23T00:55:51;100568.44;;;16.78;100.00
16255;BME280;8235;52.198;9.904;2023-05-23T00:58:18;100569.44;;;16.77;100.00
16255;BME280;8235;52.198;9.904;2023-05-23T01:00:45;100571.41;;;16.75;100.00
16255;BME280;8235;52.198;9.904;2023-05-23T01:03:14;100574.09;;;16.75;100.00
16255;BME280;8235;52.198;9.904;2023-05-23T01:05:42;100575.09;;;16.74;100.00
16255;BME280;8235;52.198;9.904;2023-05-23T01:08:09;100565.31;;;16.73;100.00
16255;BME280;8235;52.198;9.904;2023-05-23T01:10:36;100570.81;;;16.72;100.00
16255;BME280;8235;52.198;9.904;2023-05-23T01:13:11;100567.16;;;16.73;100.00
16255;BME280;8235;52.198;9.904;2023-05-23T01:15:44;100574.38;;;16.72;100.00
16255;BME280;8235;52.198;9.904;2023-05-23T01:18:15;100567.16;;;16.73;100.00
16255;BME280;8235;52.198;9.904;2023-05-23T01:20:47;100565.19;;;16.75;100.00
16255;BME280;8235;52.198;9.904;2023-05-23T01:26:30;100573.25;;;16.75;100.00
16255;BME280;8235;52.198;9.904;2023-05-23T01:29:03;100568.00;;;16.73;100.00
16255;BME280;8235;52.198;9.904;2023-05-23T01:31:36;100573.78;;;16.69;100.00
16255;BME280;8235;52.198;9.904;2023-05-23T01:34:03;100576.06;;;16.63;100.00
16255;BME280;8235;52.198;9.904;2023-05-23T01:36:32;100585.88;;;16.53;100.00
16255;BME280;8235;52.198;9.904;2023-05-23T01:38:59;100586.84;;;16.43;100.00
16255;BME280;8235;52.198;9.904;2023-05-23T01:41:26;100590.78;;;16.39;100.00
16255;BME280;8235;52.198;9.904;2023-05-23T01:43:53;100597.41;;;16.35;100.00
16255;BME280;8235;52.198;9.904;2023-05-23T01:46:22;100592.47;;;16.30;100.00
16255;BME280;8235;52.198;9.904;2023-05-23T01:48:49;100592.88;;;16.25;100.00
16255;BME280;8235;52.198;9.904;2023-05-23T01:51:16;100596.09;;;16.19;100.00
16255;BME280;8235;52.198;9.904;2023-05-23T01:53:43;100592.53;;;16.19;100.00
16255;BME280;8235;52.198;9.904;2023-05-23T01:56:09;100594.91;;;16.12;100.00
16255;BME280;8235;52.198;9.904;2023-05-23T01:58:36;100602.41;;;16.09;100.00
16255;BME280;8235;52.198;9.904;2023-05-23T02:01:03;100603.66;;;16.05;100.00
16255;BME280;8235;52.198;9.904;2023-05-23T02:03:31;100600.50;;;16.00;100.00
16255;BME280;8235;52.198;9.904;2023-05-23T02:05:57;100601.19;;;15.92;100.00
16255;BME280;8235;52.198;9.904;2023-05-23T02:08:24;100610.75;;;15.85;100.00
16255;BME280;8235;52.198;9.904;2023-05-23T02:10:50;100599.66;;;15.78;100.00
16255;BME280;8235;52.198;9.904;2023-05-23T02:13:17;100610.69;;;15.75;100.00
16255;BME280;8235;52.198;9.904;2023-05-23T02:15:43;100616.31;;;15.72;100.00
16255;BME280;8235;52.198;9.904;2023-05-23T02:18:10;100612.31;;;15.67;100.00
16255;BME280;8235;52.198;9.904;2023-05-23T02:20:38;100609.56;;;15.57;100.00
16255;BME280;8235;52.198;9.904;2023-05-23T02:23:05;100617.13;;;15.52;100.00
16255;BME280;8235;52.198;9.904;2023-05-23T02:25:31;100621.41;;;15.43;100.00
16255;BME280;8235;52.198;9.904;2023-05-23T02:27:58;100630.84;;;15.38;100.00
16255;BME280;8235;52.198;9.904;2023-05-23T02:30:24;100634.66;;;15.35;100.00
16255;BME280;8235;52.198;9.904;2023-05-23T02:32:51;100634.03;;;15.32;100.00
16255;BME280;8235;52.198;9.904;2023-05-23T02:35:17;100631.63;;;15.28;100.00
16255;BME280;8235;52.198;9.904;2023-05-23T02:37:45;100630.16;;;15.24;100.00
16255;BME280;8235;52.198;9.904;2023-05-23T02:40:11;100633.13;;;15.21;100.00
16255;BME280;8235;52.198;9.904;2023-05-23T02:42:38;100636.78;;;15.20;100.00
16255;BME280;8235;52.198;9.904;2023-05-23T02:45:05;100633.38;;;15.18;100.00
16255;BME280;8235;52.198;9.904;2023-05-23T02:47:32;100640.44;;;15.19;100.00
16255;BME280;8235;52.198;9.904;2023-05-23T02:49:58;100642.41;;;15.17;100.00
16255;BME280;8235;52.198;9.904;2023-05-23T02:52:25;100645.19;;;15.16;100.00
16255;BME280;8235;52.198;9.904;2023-05-23T02:54:53;100639.97;;;15.14;100.00
16255;BME280;8235;52.198;9.904;2023-05-23T02:57:19;100638.38;;;15.12;100.00
16255;BME280;8235;52.198;9.904;2023-05-23T02:59:46;100635.69;;;15.12;100.00
16255;BME280;8235;52.198;9.904;2023-05-23T03:02:12;100645.56;;;15.11;100.00
16255;BME280;8235;52.198;9.904;2023-05-23T03:04:38;100643.88;;;15.10;100.00
16255;BME280;8235;52.198;9.904;2023-05-23T03:07:05;100645.81;;;15.08;100.00
16255;BME280;8235;52.198;9.904;2023-05-23T03:09:32;100641.44;;;15.07;100.00
16255;BME280;8235;52.198;9.904;2023-05-23T03:12:00;100639.72;;;15.06;99.83
16255;BME280;8235;52.198;9.904;2023-05-23T03:14:27;100640.84;;;15.04;100.00
16255;BME280;8235;52.198;9.904;2023-05-23T03:16:53;100640.84;;;15.04;99.71
16255;BME280;8235;52.198;9.904;2023-05-23T03:19:20;100634.75;;;15.02;99.45
16255;BME280;8235;52.198;9.904;2023-05-23T03:21:46;100643.91;;;14.99;99.26
16255;BME280;8235;52.198;9.904;2023-05-23T03:24:15;100637.94;;;14.96;99.48
16255;BME280;8235;52.198;9.904;2023-05-23T03:26:41;100635.38;;;14.94;99.17
16255;BME280;8235;52.198;9.904;2023-05-23T03:29:09;100635.63;;;14.91;99.32
16255;BME280;8235;52.198;9.904;2023-05-23T03:31:36;100642.94;;;14.89;99.12
16255;BME280;8235;52.198;9.904;2023-05-23T03:34:03;100632.22;;;14.89;99.10
16255;BME280;8235;52.198;9.904;2023-05-23T03:36:29;100643.06;;;14.87;99.55
16255;BME280;8235;52.198;9.904;2023-05-23T03:38:57;100639.69;;;14.85;99.41
16255;BME280;8235;52.198;9.904;2023-05-23T03:41:23;100637.00;;;14.85;99.29
16255;BME280;8235;52.198;9.904;2023-05-23T03:43:50;100633.59;;;14.83;99.60
16255;BME280;8235;52.198;9.904;2023-05-23T03:46:18;100640.78;;;14.83;99.26
16255;BME280;8235;52.198;9.904;2023-05-23T03:48:44;100636.38;;;14.82;99.24
16255;BME280;8235;52.198;9.904;2023-05-23T03:51:11;100636.38;;;14.82;99.45
16255;BME280;8235;52.198;9.904;2023-05-23T03:53:38;100630.16;;;14.81;99.41
16255;BME280;8235;52.198;9.904;2023-05-23T03:56:05;100634.69;;;14.81;99.47
16255;BME280;8235;52.198;9.904;2023-05-23T03:58:31;100634.69;;;14.81;99.67
16255;BME280;8235;52.198;9.904;2023-05-23T04:00:58;100636.63;;;14.79;99.43
16255;BME280;8235;52.198;9.904;2023-05-23T04:03:27;100642.00;;;14.79;100.00
16255;BME280;8235;52.198;9.904;2023-05-23T04:05:56;100643.94;;;14.77;100.00
16255;BME280;8235;52.198;9.904;2023-05-23T04:08:23;100643.94;;;14.77;100.00
16255;BME280;8235;52.198;9.904;2023-05-23T04:10:50;100643.81;;;14.78;100.00
16255;BME280;8235;52.198;9.904;2023-05-23T04:13:16;100650.16;;;14.77;100.00
16255;BME280;8235;52.198;9.904;2023-05-23T04:15:43;100644.06;;;14.75;100.00
16255;BME280;8235;52.198;9.904;2023-05-23T04:18:10;100653.06;;;14.74;100.00
16255;BME280;8235;52.198;9.904;2023-05-23T04:20:37;100647.84;;;14.73;100.00
16255;BME280;8235;52.198;9.904;2023-05-23T04:23:04;100652.59;;;14.69;100.00
16255;BME280;8235;52.198;9.904;2023-05-23T04:25:30;100652.00;;;14.66;100.00
16255;BME280;8235;52.198;9.904;2023-05-23T04:27:58;100648.59;;;14.64;100.00
16255;BME280;8235;52.198;9.904;2023-05-23T04:30:25;100640.66;;;14.62;100.00
16255;BME280;8235;52.198;9.904;2023-05-23T04:32:54;100648.84;;;14.61;100.00
16255;BME280;8235;52.198;9.904;2023-05-23T04:35:22;100641.75;;;14.59;100.00
16255;BME280;8235;52.198;9.904;2023-05-23T04:37:50;100642.50;;;14.62;100.00
16255;BME280;8235;52.198;9.904;2023-05-23T04:40:20;100637.00;;;14.63;100.00
16255;BME280;8235;52.198;9.904;2023-05-23T04:42:47;100644.09;;;14.64;100.00
16255;BME280;8235;52.198;9.904;2023-05-23T04:45:14;100639.47;;;14.66;100.00
16255;BME280;8235;52.198;9.904;2023-05-23T04:47:40;100645.56;;;14.68;100.00
16255;BME280;8235;52.198;9.904;2023-05-23T04:50:09;100648.06;;;14.70;100.00
16255;BME280;8235;52.198;9.904;2023-05-23T04:52:36;100633.00;;;14.69;100.00
16255;BME280;8235;52.198;9.904;2023-05-23T04:55:04;100645.41;;;14.70;100.00
16255;BME280;8235;52.198;9.904;2023-05-23T04:57:31;100641.88;;;14.69;100.00
16255;BME280;8235;52.198;9.904;2023-05-23T04:59:57;100645.28;;;14.71;100.00
16255;BME280;8235;52.198;9.904;2023-05-23T05:02:25;100640.78;;;14.72;100.00
16255;BME280;8235;52.198;9.904;2023-05-23T05:04:52;100654.91;;;14.74;100.00
16255;BME280;8235;52.198;9.904;2023-05-23T05:07:18;100651.25;;;14.75;100.00
16255;BME280;8235;52.198;9.904;2023-05-23T05:09:45;100645.16;;;14.73;100.00
16255;BME280;8235;52.198;9.904;2023-05-23T05:12:12;100643.44;;;14.72;100.00
16255;BME280;8235;52.198;9.904;2023-05-23T05:14:39;100645.28;;;14.71;100.00
16255;BME280;8235;52.198;9.904;2023-05-23T05:17:05;100649.78;;;14.71;100.00
16255;BME280;8235;52.198;9.904;2023-05-23T05:19:32;100650.75;;;14.70;100.00
16255;BME280;8235;52.198;9.904;2023-05-23T05:21:58;100656.28;;;14.68;100.00
16255;BME280;8235;52.198;9.904;2023-05-23T05:24:25;100648.34;;;14.67;100.00
16255;BME280;8235;52.198;9.904;2023-05-23T05:26:53;100655.66;;;14.65;100.00
16255;BME280;8235;52.198;9.904;2023-05-23T05:29:21;100653.94;;;14.64;100.00
16255;BME280;8235;52.198;9.904;2023-05-23T05:31:47;100657.59;;;14.63;100.00
16255;BME280;8235;52.198;9.904;2023-05-23T05:34:14;100653.47;;;14.58;100.00
16255;BME280;8235;52.198;9.904;2023-05-23T05:36:40;100654.44;;;14.57;100.00
16255;BME280;8235;52.198;9.904;2023-05-23T05:39:11;100651.00;;;14.55;100.00
16255;BME280;8235;52.198;9.904;2023-05-23T05:41:38;100649.19;;;14.56;100.00
16255;BME280;8235;52.198;9.904;2023-05-23T05:44:04;100653.69;;;14.55;100.00
16255;BME280;8235;52.198;9.904;2023-05-23T05:46:32;100652.84;;;14.55;100.00
16255;BME280;8235;52.198;9.904;2023-05-23T05:48:59;100652.72;;;14.56;100.00
16255;BME280;8235;52.198;9.904;2023-05-23T05:51:25;100657.13;;;14.57;100.00
16255;BME280;8235;52.198;9.904;2023-05-23T05:53:52;100661.75;;;14.55;100.00
16255;BME280;8235;52.198;9.904;2023-05-23T05:56:19;100662.59;;;14.56;100.00
16255;BME280;8235;52.198;9.904;2023-05-23T05:58:46;100665.28;;;14.56;100.00
16255;BME280;8235;52.198;9.904;2023-05-23T06:01:13;100656.38;;;14.55;100.00
16255;BME280;8235;52.198;9.904;2023-05-23T06:03:41;100660.03;;;14.54;100.00
16255;BME280;8235;52.198;9.904;2023-05-23T06:06:07;100660.88;;;14.55;100.00
16255;BME280;8235;52.198;9.904;2023-05-23T06:08:34;100664.31;;;14.57;100.00
16255;BME280;8235;52.198;9.904;2023-05-23T06:11:00;100661.75;;;14.55;100.00
16255;BME280;8235;52.198;9.904;2023-05-23T06:13:27;100658.22;;;14.55;100.00
16255;BME280;8235;52.198;9.904;2023-05-23T06:15:53;100661.75;;;14.55;100.00
16255;BME280;8235;52.198;9.904;2023-05-23T06:18:20;100659.91;;;14.56;100.00
16255;BME280;8235;52.198;9.904;2023-05-23T06:20:48;100660.75;;;14.56;100.00
16255;BME280;8235;52.198;9.904;2023-05-23T06:23:15;100652.84;;;14.55;100.00
16255;BME280;8235;52.198;9.904;2023-05-23T06:25:41;100662.72;;;14.54;100.00
16255;BME280;8235;52.198;9.904;2023-05-23T06:28:08;100659.28;;;14.52;100.00
16255;BME280;8235;52.198;9.904;2023-05-23T06:30:34;100653.22;;;14.50;100.00
16255;BME280;8235;52.198;9.904;2023-05-23T06:33:02;100660.53;;;14.48;100.00
16255;BME280;8235;52.198;9.904;2023-05-23T06:35:29;100665.91;;;14.48;100.00
16255;BME280;8235;52.198;9.904;2023-05-23T06:37:56;100670.41;;;14.48;100.00
16255;BME280;8235;52.198;9.904;2023-05-23T06:40:23;100668.81;;;14.45;100.00
16255;BME280;8235;52.198;9.904;2023-05-23T06:42:49;100673.44;;;14.43;100.00
16255;BME280;8235;52.198;9.904;2023-05-23T06:45:16;100665.41;;;14.43;100.00
16255;BME280;8235;52.198;9.904;2023-05-23T06:47:43;100665.41;;;14.43;100.00
16255;BME280;8235;52.198;9.904;2023-05-23T06:50:10;100669.91;;;14.43;100.00
16255;BME280;8235;52.198;9.904;2023-05-23T06:52:36;100674.41;;;14.42;100.00
16255;BME280;8235;52.198;9.904;2023-05-23T06:55:05;100678.06;;;14.41;100.00
16255;BME280;8235;52.198;9.904;2023-05-23T06:57:32;100669.06;;;14.42;100.00
16255;BME280;8235;52.198;9.904;2023-05-23T06:59:58;100677.94;;;14.43;100.00
16255;BME280;8235;52.198;9.904;2023-05-23T07:02:25;100688.78;;;14.41;100.00
16255;BME280;8235;52.198;9.904;2023-05-23T07:04:51;100689.63;;;14.42;100.00
16255;BME280;8235;52.198;9.904;2023-05-23T07:07:17;100687.81;;;14.42;100.00
16255;BME280;8235;52.198;9.904;2023-05-23T07:09:44;100692.31;;;14.42;100.00
16255;BME280;8235;52.198;9.904;2023-05-23T07:12:12;100688.78;;;14.41;100.00
16255;BME280;8235;52.198;9.904;2023-05-23T07:14:39;100695.13;;;14.40;100.00
16255;BME280;8235;52.198;9.904;2023-05-23T07:17:05;100697.13;;;14.37;100.00
16255;BME280;8235;52.198;9.904;2023-05-23T07:19:31;100686.19;;;14.29;100.00
16255;BME280;8235;52.198;9.904;2023-05-23T07:21:58;100697.38;;;14.22;100.00
16255;BME280;8235;52.198;9.904;2023-05-23T07:24:24;100694.94;;;14.19;100.00
16255;BME280;8235;52.198;9.904;2023-05-23T07:26:51;100699.66;;;14.16;100.00
16255;BME280;8235;52.198;9.904;2023-05-23T07:29:19;100691.16;;;14.11;100.00
16255;BME280;8235;52.198;9.904;2023-05-23T07:31:45;100696.75;;;14.08;100.00
16255;BME280;8235;52.198;9.904;2023-05-23T07:34:12;100707.56;;;14.06;100.00
16255;BME280;8235;52.198;9.904;2023-05-23T07:36:38;100704.78;;;14.08;100.00
16255;BME280;8235;52.198;9.904;2023-05-23T07:39:05;100709.28;;;14.07;100.00
16255;BME280;8235;52.198;9.904;2023-05-23T07:41:31;100703.06;;;14.07;100.00
16255;BME280;8235;52.198;9.904;2023-05-23T07:43:58;100708.75;;;14.02;100.00
16255;BME280;8235;52.198;9.904;2023-05-23T07:46:25;100706.31;;;13.99;100.00
16255;BME280;8235;52.198;9.904;2023-05-23T07:48:52;100713.66;;;13.97;100.00
16255;BME280;8235;52.198;9.904;2023-05-23T07:51:19;100716.44;;;13.96;100.00
16255;BME280;8235;52.198;9.904;2023-05-23T07:53:46;100713.03;;;13.94;100.00
16255;BME280;8235;52.198;9.904;2023-05-23T07:56:12;100718.50;;;13.92;100.00
16255;BME280;8235;52.198;9.904;2023-05-23T07:58:39;100712.41;;;13.90;100.00
16255;BME280;8235;52.198;9.904;2023-05-23T08:01:05;100723.72;;;13.94;100.00
16255;BME280;8235;52.198;9.904;2023-05-23T08:03:33;100727.50;;;13.91;100.00
16255;BME280;8235;52.198;9.904;2023-05-23T08:06:00;100722.34;;;13.88;100.00
16255;BME280;8235;52.198;9.904;2023-05-23T08:08:26;100736.72;;;13.87;100.00
16255;BME280;8235;52.198;9.904;2023-05-23T08:10:52;100728.78;;;13.85;100.00
16255;BME280;8235;52.198;9.904;2023-05-23T08:13:19;100735.00;;;13.86;100.00
16255;BME280;8235;52.198;9.904;2023-05-23T08:15:45;100736.09;;;13.83;100.00
16255;BME280;8235;52.198;9.904;2023-05-23T08:18:12;100743.38;;;13.81;100.00
16255;BME280;8235;52.198;9.904;2023-05-23T08:20:40;100739.13;;;13.79;100.00
16255;BME280;8235;52.198;9.904;2023-05-23T08:23:07;100746.66;;;13.74;100.00
16255;BME280;8235;52.198;9.904;2023-05-23T08:25:33;100754.16;;;13.69;100.00
16255;BME280;8235;52.198;9.904;2023-05-23T08:28:00;100759.41;;;13.70;100.00
16255;BME280;8235;52.198;9.904;2023-05-23T08:30:27;100766.47;;;13.71;100.00
16255;BME280;8235;52.198;9.904;2023-05-23T08:32:54;100759.41;;;13.70;100.00
16255;BME280;8235;52.198;9.904;2023-05-23T08:35:22;100753.31;;;13.68;100.00
16255;BME280;8235;52.198;9.904;2023-05-23T08:37:50;100761.56;;;13.65;100.00
16255;BME280;8235;52.198;9.904;2023-05-23T08:40:18;100768.63;;;13.66;100.00
16255;BME280;8235;52.198;9.904;2023-05-23T08:42:45;100762.41;;;13.66;100.00
16255;BME280;8235;52.198;9.904;2023-05-23T08:45:12;100777.59;;;13.65;100.00
16255;BME280;8235;52.198;9.904;2023-05-23T08:47:41;100791.09;;;13.64;100.00
16255;BME280;8235;52.198;9.904;2023-05-23T08:50:11;100785.16;;;13.60;100.00
16255;BME280;8235;52.198;9.904;2023-05-23T08:52:42;100789.13;;;13.54;100.00
16255;BME280;8235;52.198;9.904;2023-05-23T08:55:11;100795.88;;;13.47;100.00
16255;BME280;8235;52.198;9.904;2023-05-23T08:57:38;100807.03;;;13.41;100.00
16255;BME280;8235;52.198;9.904;2023-05-23T09:00:08;100811.00;;;13.36;100.00
16255;BME280;8235;52.198;9.904;2023-05-23T09:02:39;100811.44;;;13.30;100.00
16255;BME280;8235;52.198;9.904;2023-05-23T09:05:06;100814.97;;;13.30;100.00
16255;BME280;8235;52.198;9.904;2023-05-23T09:07:33;100828.66;;;13.26;100.00
16255;BME280;8235;52.198;9.904;2023-05-23T09:10:01;100830.63;;;13.24;100.00
16255;BME280;8235;52.198;9.904;2023-05-23T09:12:29;100831.69;;;13.21;100.00
16255;BME280;8235;52.198;9.904;2023-05-23T09:14:57;100832.88;;;13.17;100.00
16255;BME280;8235;52.198;9.904;2023-05-23T09:17:24;100847.28;;;13.14;100.00
16255;BME280;8235;52.198;9.904;2023-05-23T09:19:50;100843.84;;;13.12;100.00
16255;BME280;8235;52.198;9.904;2023-05-23T09:22:22;100840.53;;;13.09;100.00
16255;BME280;8235;52.198;9.904;2023-05-23T09:24:49;100846.22;;;13.04;100.00
16255;BME280;8235;52.198;9.904;2023-05-23T09:27:16;100859.81;;;13.01;100.00
16255;BME280;8235;52.198;9.904;2023-05-23T09:29:44;100847.50;;;12.99;100.00
16255;BME280;8235;52.198;9.904;2023-05-23T09:32:12;100856.69;;;12.95;100.00
16255;BME280;8235;52.198;9.904;2023-05-23T09:34:42;100857.75;;;12.92;100.00
16255;BME280;8235;52.198;9.904;2023-05-23T09:37:20;100868.16;;;12.84;100.00
16255;BME280;8235;52.198;9.904;2023-05-23T09:39:49;100876.38;;;12.81;100.00
16255;BME280;8235;52.198;9.904;2023-05-23T09:42:19;100883.94;;;12.74;100.00
16255;BME280;8235;52.198;9.904;2023-05-23T09:44:48;100873.34;;;12.73;100.00
16255;BME280;8235;52.198;9.904;2023-05-23T09:47:15;100889.84;;;12.67;100.00
16255;BME280;8235;52.198;9.904;2023-05-23T09:49:42;100884.91;;;12.61;100.00
16255;BME280;8235;52.198;9.904;2023-05-23T09:52:09;100883.63;;;12.54;100.00
16255;BME280;8235;52.198;9.904;2023-05-23T09:54:35;100879.63;;;12.46;100.00
16255;BME280;8235;52.198;9.904;2023-05-23T09:57:02;100886.69;;;12.47;100.00
16255;BME280;8235;52.198;9.904;2023-05-23T09:59:32;100869.72;;;12.48;100.00
16255;BME280;8235;52.198;9.904;2023-05-23T10:02:02;100891.19;;;12.47;100.00
16255;BME280;8235;52.198;9.904;2023-05-23T10:04:33;100905.59;;;12.44;100.00
16255;BME280;8235;52.198;9.904;2023-05-23T10:07:04;100902.16;;;12.42;100.00
16255;BME280;8235;52.198;9.904;2023-05-23T10:09:35;100906.56;;;12.43;100.00
16255;BME280;8235;52.198;9.904;2023-05-23T10:12:38;100913.81;;;12.41;100.00
16255;BME280;8235;52.198;9.904;2023-05-23T10:15:08;100906.00;;;12.38;100.00
16255;BME280;8235;52.198;9.904;2023-05-23T10:17:45;100915.19;;;12.34;100.00
16255;BME280;8235;52.198;9.904;2023-05-23T10:20:17;100922.66;;;12.29;100.00
16255;BME280;8235;52.198;9.904;2023-05-23T10:22:47;100919.03;;;12.30;100.00
16255;BME280;8235;52.198;9.904;2023-05-23T10:25:14;100932.47;;;12.29;100.00
16255;BME280;8235;52.198;9.904;2023-05-23T10:27:42;100935.34;;;12.26;100.00
16255;BME280;8235;52.198;9.904;2023-05-23T10:30:09;100935.25;;;12.27;100.00
16255;BME280;8235;52.198;9.904;2023-05-23T10:32:38;100944.97;;;12.28;100.00
16255;BME280;8235;52.198;9.904;2023-05-23T10:35:11;100943.34;;;12.26;100.00
16255;BME280;8235;52.198;9.904;2023-05-23T10:37:45;100938.88;;;12.26;100.00
16255;BME280;8235;52.198;9.904;2023-05-23T10:40:21;100950.41;;;12.27;100.00
16255;BME280;8235;52.198;9.904;2023-05-23T10:42:54;100948.50;;;12.29;100.00
16255;BME280;8235;52.198;9.904;2023-05-23T10:45:23;100955.66;;;12.28;100.00
16255;BME280;8235;52.198;9.904;2023-05-23T10:47:52;100951.25;;;12.27;100.00
16255;BME280;8235;52.198;9.904;2023-05-23T10:50:32;100957.75;;;12.23;100.00
16255;BME280;8235;52.198;9.904;2023-05-23T10:53:01;100947.16;;;12.22;100.00
16255;BME280;8235;52.198;9.904;2023-05-23T10:55:30;100958.91;;;12.19;100.00
16255;BME280;8235;52.198;9.904;2023-05-23T10:58:11;100961.56;;;12.19;100.00
16255;BME280;8235;52.198;9.904;2023-05-23T11:00:50;100965.31;;;12.16;100.00
16255;BME280;8235;52.198;9.904;2023-05-23T11:03:18;100967.25;;;12.14;100.00
16255;BME280;8235;52.198;9.904;2023-05-23T11:05:55;100976.00;;;12.16;100.00
16255;BME280;8235;52.198;9.904;2023-05-23T11:08:23;100985.59;;;12.19;100.00
16255;BME280;8235;52.198;9.904;2023-05-23T11:10:54;100990.94;;;12.19;100.00
16255;BME280;8235;52.198;9.904;2023-05-23T11:13:21;100992.75;;;12.18;100.00
16255;BME280;8235;52.198;9.904;2023-05-23T11:15:48;101003.34;;;12.20;100.00
16255;BME280;8235;52.198;9.904;2023-05-23T11:18:21;101007.19;;;12.16;100.00
16255;BME280;8235;52.198;9.904;2023-05-23T11:20:51;101011.78;;;12.14;100.00
16255;BME280;8235;52.198;9.904;2023-05-23T11:23:18;101012.63;;;12.14;100.00
16255;BME280;8235;52.198;9.904;2023-05-23T11:25:48;101023.41;;;12.13;100.00
16255;BME280;8235;52.198;9.904;2023-05-23T11:28:15;101022.44;;;12.14;100.00
16255;BME280;8235;52.198;9.904;2023-05-23T11:30:42;101024.25;;;12.13;100.00
16255;BME280;8235;52.198;9.904;2023-05-23T11:33:10;101027.88;;;12.12;100.00
16255;BME280;8235;52.198;9.904;2023-05-23T11:35:40;101028.94;;;12.10;100.00
16255;BME280;8235;52.198;9.904;2023-05-23T11:38:07;101022.06;;;12.06;100.00
16255;BME280;8235;52.198;9.904;2023-05-23T11:40:35;101025.78;;;12.03;100.00
16255;BME280;8235;52.198;9.904;2023-05-23T11:43:04;101023.09;;;12.03;100.00
16255;BME280;8235;52.198;9.904;2023-05-23T11:45:31;101029.22;;;12.05;100.00
16255;BME280;8235;52.198;9.904;2023-05-23T11:48:03;101023.88;;;12.05;100.00
16255;BME280;8235;52.198;9.904;2023-05-23T11:50:29;101027.41;;;12.06;100.00
16255;BME280;8235;52.198;9.904;2023-05-23T11:52:58;101028.16;;;12.08;100.00
16255;BME280;8235;52.198;9.904;2023-05-23T11:55:25;101031.97;;;12.04;100.00
16255;BME280;8235;52.198;9.904;2023-05-23T11:57:54;101033.50;;;12.08;100.00
16255;BME280;8235;52.198;9.904;2023-05-23T12:00:21;101035.22;;;12.09;100.00
16255;BME280;8235;52.198;9.904;2023-05-23T12:02:47;101036.75;;;12.13;100.00
16255;BME280;8235;52.198;9.904;2023-05-23T12:05:14;101038.16;;;12.18;100.00
16255;BME280;8235;52.198;9.904;2023-05-23T12:07:41;101036.72;;;12.27;100.00
16255;BME280;8235;52.198;9.904;2023-05-23T12:10:11;101047.22;;;12.30;100.00
16255;BME280;8235;52.198;9.904;2023-05-23T12:22:27;101059.63;;;12.17;99.47
16255;BME280;8235;52.198;9.904;2023-05-23T12:24:54;101063.34;;;12.14;98.85
16255;BME280;8235;52.198;9.904;2023-05-23T12:27:26;101074.03;;;12.14;98.95
16255;BME280;8235;52.198;9.904;2023-05-23T12:30:04;101066.47;;;12.21;98.90
16255;BME280;8235;52.198;9.904;2023-05-23T12:32:31;101070.47;;;12.28;99.29
16255;BME280;8235;52.198;9.904;2023-05-23T12:34:58;101062.94;;;12.35;99.14
16255;BME280;8235;52.198;9.904;2023-05-23T12:37:25;101064.16;;;12.43;98.87
16255;BME280;8235;52.198;9.904;2023-05-23T12:39:53;101069.88;;;12.51;97.75
16255;BME280;8235;52.198;9.904;2023-05-23T12:42:19;101066.59;;;12.61;96.83
16255;BME280;8235;52.198;9.904;2023-05-23T12:44:49;101062.38;;;12.71;95.39
16255;BME280;8235;52.198;9.904;2023-05-23T12:47:16;101061.75;;;12.80;94.01
16255;BME280;8235;52.198;9.904;2023-05-23T12:49:42;101067.38;;;12.90;93.54
16255;BME280;8235;52.198;9.904;2023-05-23T12:52:11;101076.78;;;12.95;91.76
16255;BME280;8235;52.198;9.904;2023-05-23T12:54:37;101078.28;;;12.99;90.88
16255;BME280;8235;52.198;9.904;2023-05-23T12:57:05;101073.41;;;13.06;90.28
16255;BME280;8235;52.198;9.904;2023-05-23T12:59:31;101081.19;;;13.09;89.40
16255;BME280;8235;52.198;9.904;2023-05-23T13:01:58;101084.72;;;13.09;87.64
16255;BME280;8235;52.198;9.904;2023-05-23T13:04:25;101090.84;;;13.11;87.54
16255;BME280;8235;52.198;9.904;2023-05-23T13:06:52;101091.78;;;13.10;86.68